createdAt,value
2022-10-01T00:03:10.813Z,12.37
2022-10-01T00:08:16.122Z,11.06
2022-10-01T00:13:17.844Z,10.17
2022-10-01T00:18:19.538Z,10.56
2022-10-01T00:23:21.271Z,13.09
2022-10-01T00:28:22.989Z,14.59
2022-10-01T00:33:25.946Z,14.48
2022-10-01T00:38:28.738Z,12.32
2022-10-01T00:43:37.275Z,10.92
2022-10-01T00:48:59.041Z,10.03
2022-10-01T00:54:10.807Z,10.69
2022-10-01T00:59:15.710Z,13.43
2022-10-01T01:04:17.852Z,14.85
2022-10-01T01:09:22.341Z,14.47
2022-10-01T01:14:57.463Z,12.31
2022-10-01T01:20:08.145Z,10.84
2022-10-01T01:25:21.714Z,9.97
2022-10-01T01:30:24.016Z,10.57
2022-10-01T01:35:37.079Z,13.33
2022-10-01T01:40:42.979Z,14.82
2022-10-01T01:45:47.685Z,14.62
2022-10-01T01:51:04.752Z,12.50
2022-10-01T01:56:07.473Z,11.12
2022-10-01T02:01:40.711Z,10.23
2022-10-01T02:07:23.984Z,11.03
2022-10-01T02:12:50.879Z,13.88
2022-10-01T02:18:42.612Z,15.03
2022-10-01T02:24:01.010Z,13.20
2022-10-01T02:29:09.409Z,11.29
2022-10-01T02:34:19.993Z,10.15
2022-10-01T02:39:26.686Z,9.32
2022-10-01T02:44:41.499Z,9.95
2022-10-01T02:49:43.894Z,12.86
2022-10-01T02:54:54.268Z,14.21
2022-10-01T03:00:08.632Z,13.86
2022-10-01T03:05:10.519Z,11.69
2022-10-01T03:10:15.562Z,10.38
2022-10-01T03:15:19.779Z,9.40
2022-10-01T03:20:22.481Z,8.59
2022-10-01T03:25:24.328Z,9.18
2022-10-01T03:30:26.439Z,11.94
2022-10-01T03:35:28.120Z,13.31
2022-10-01T03:40:32.741Z,13.05
2022-10-01T03:45:34.416Z,10.94
2022-10-01T03:50:36.134Z,9.61
2022-10-01T03:55:37.772Z,8.68
2022-10-01T04:00:39.378Z,9.12
2022-10-01T04:05:45.931Z,11.76
2022-10-01T04:10:48.918Z,13.25
2022-10-01T04:15:50.592Z,13.03
2022-10-01T04:20:52.333Z,10.92
2022-10-01T04:25:54.475Z,9.53
2022-10-01T04:31:15.064Z,8.52
2022-10-01T04:36:16.946Z,7.71
2022-10-01T04:41:19.271Z,8.33
2022-10-01T04:46:21.185Z,11.06
2022-10-01T04:51:23.089Z,12.37
2022-10-01T04:56:24.749Z,12.20
2022-10-01T05:01:26.432Z,10.28
2022-10-01T05:06:28.187Z,8.99
2022-10-01T05:11:29.991Z,8.12
2022-10-01T05:16:31.704Z,8.82
2022-10-01T05:21:33.629Z,11.65
2022-10-01T05:26:37.252Z,12.97
2022-10-01T05:31:43.816Z,12.73
2022-10-01T05:36:45.558Z,10.76
2022-10-01T05:41:47.188Z,9.55
2022-10-01T05:46:49.886Z,8.72
2022-10-01T05:51:51.564Z,9.35
2022-10-01T05:56:54.157Z,12.05
2022-10-01T06:01:55.912Z,13.45
2022-10-01T06:06:58.452Z,14.25
2022-10-01T06:12:00.343Z,13.90
2022-10-01T06:17:02.031Z,11.93
2022-10-01T06:22:03.717Z,10.63
2022-10-01T06:27:05.472Z,9.75
2022-10-01T06:32:10.239Z,10.34
2022-10-01T06:37:12.026Z,12.96
2022-10-01T06:42:13.851Z,14.26
2022-10-01T06:47:15.630Z,14.99
2022-10-01T06:52:35.842Z,15.68
2022-10-01T06:57:37.566Z,15.25
2022-10-01T07:02:40.736Z,13.36
2022-10-01T07:07:44.312Z,12.24
2022-10-01T07:12:50.195Z,11.51
2022-10-01T07:17:52.451Z,12.19
2022-10-01T07:22:59.630Z,14.89
2022-10-01T07:28:05.096Z,16.53
2022-10-01T07:33:06.889Z,16.74
2022-10-01T07:38:08.763Z,14.75
2022-10-01T07:43:10.544Z,13.45
2022-10-01T07:48:16.829Z,12.77
2022-10-01T07:53:19.593Z,13.46
2022-10-01T07:58:23.448Z,16.17
2022-10-01T08:03:25.244Z,17.61
2022-10-01T08:08:26.993Z,17.04
2022-10-01T08:13:29.278Z,15.25
2022-10-01T08:18:32.888Z,14.21
2022-10-01T08:23:35.933Z,13.58
2022-10-01T08:28:37.878Z,13.19
2022-10-01T08:33:40.065Z,14.12
2022-10-01T08:38:47.084Z,17.05
2022-10-01T08:43:51.217Z,17.83
2022-10-01T08:49:20.215Z,16.16
2022-10-01T08:54:42.258Z,15.12
2022-10-01T08:59:44.030Z,14.59
2022-10-01T09:04:49.869Z,14.31
2022-10-01T09:10:17.610Z,14.20
2022-10-01T09:15:58.173Z,15.56
2022-10-01T09:21:00.456Z,18.60
2022-10-01T09:26:02.944Z,17.83
2022-10-01T09:31:26.233Z,16.55
2022-10-01T09:36:47.146Z,15.88
2022-10-01T09:41:48.922Z,15.56
2022-10-01T09:46:51.007Z,15.43
2022-10-01T09:52:05.822Z,15.37
2022-10-01T09:57:16.585Z,15.35
2022-10-01T10:02:32.149Z,15.35
2022-10-01T10:07:34.906Z,15.38
2022-10-01T10:12:37.161Z,15.49
2022-10-01T10:17:43.724Z,15.64
2022-10-01T10:22:45.521Z,15.81
2022-10-01T10:27:56.115Z,16.00
2022-10-01T10:33:07.591Z,16.17
2022-10-01T10:38:20.022Z,16.30
2022-10-01T10:43:29.989Z,16.43
2022-10-01T10:48:47.615Z,16.57
2022-10-01T10:53:49.372Z,16.68
2022-10-01T10:58:53.437Z,16.77
2022-10-01T11:04:00.021Z,16.91
2022-10-01T11:09:10.030Z,17.10
2022-10-01T11:14:23.912Z,17.22
2022-10-01T11:19:31.775Z,17.32
2022-10-01T11:25:11.077Z,17.48
2022-10-01T11:30:47.515Z,17.66
2022-10-01T11:36:14.737Z,17.69
2022-10-01T11:41:42.787Z,17.74
2022-10-01T11:46:59.186Z,17.81
2022-10-01T11:52:35.083Z,17.74
2022-10-01T11:57:55.685Z,17.80
2022-10-01T12:03:02.389Z,17.96
2022-10-01T12:08:26.088Z,18.01
2022-10-01T12:13:39.822Z,17.99
2022-10-01T12:18:57.224Z,17.91
2022-10-01T12:24:28.669Z,17.84
2022-10-01T12:29:57.923Z,17.86
2022-10-01T12:35:12.117Z,17.97
2022-10-01T12:40:50.961Z,18.10
2022-10-01T12:46:26.897Z,18.10
2022-10-01T12:51:53.659Z,18.04
2022-10-01T12:57:08.101Z,17.98
2022-10-01T13:02:38.961Z,17.94
2022-10-01T13:08:08.970Z,17.93
2022-10-01T13:13:32.446Z,17.94
2022-10-01T13:19:09.172Z,17.96
2022-10-01T13:24:42.145Z,17.88
2022-10-01T13:30:34.918Z,17.83
2022-10-01T13:35:40.074Z,17.86
2022-10-01T13:40:42.868Z,17.90
2022-10-01T13:45:48.365Z,17.84
2022-10-01T13:51:02.600Z,17.82
2022-10-01T13:56:05.400Z,18.06
2022-10-01T14:01:21.386Z,18.54
2022-10-01T14:06:36.776Z,18.91
2022-10-01T14:12:04.281Z,18.89
2022-10-01T14:17:09.403Z,18.68
2022-10-01T14:22:52.370Z,18.41
2022-10-01T14:28:32.854Z,18.02
2022-10-01T14:33:40.467Z,17.61
2022-10-01T14:38:42.453Z,17.29
2022-10-01T14:43:44.538Z,17.04
2022-10-01T14:48:59.000Z,16.84
2022-10-01T14:54:01.292Z,16.65
2022-10-01T14:59:05.441Z,16.51
2022-10-01T15:04:20.736Z,16.39
2022-10-01T15:09:22.895Z,16.29
2022-10-01T15:14:25.589Z,16.15
2022-10-01T15:19:27.878Z,16.01
2022-10-01T15:24:45.926Z,15.92
2022-10-01T15:29:56.077Z,15.80
2022-10-01T15:35:01.536Z,15.69
2022-10-01T15:40:19.486Z,15.57
2022-10-01T15:45:25.415Z,15.46
2022-10-01T15:50:36.103Z,15.35
2022-10-01T15:55:52.611Z,15.21
2022-10-01T16:01:07.041Z,15.09
2022-10-01T16:06:27.487Z,14.94
2022-10-01T16:11:35.442Z,14.80
2022-10-01T16:16:37.699Z,15.94
2022-10-01T16:21:40.592Z,18.78
2022-10-01T16:26:44.727Z,19.38
2022-10-01T16:31:47.005Z,17.62
2022-10-01T16:36:49.807Z,16.48
2022-10-01T16:42:12.161Z,15.74
2022-10-01T16:47:14.770Z,15.12
2022-10-01T16:52:16.829Z,14.72
2022-10-01T16:57:18.731Z,14.41
2022-10-01T17:02:20.567Z,15.36
2022-10-01T17:07:22.541Z,18.16
2022-10-01T17:12:26.524Z,18.66
2022-10-01T17:17:28.276Z,16.89
2022-10-01T17:22:31.078Z,15.78
2022-10-01T17:27:32.894Z,15.04
2022-10-01T17:32:36.782Z,14.53
2022-10-01T17:37:39.969Z,14.17
2022-10-01T17:42:41.760Z,15.03
2022-10-01T17:47:46.062Z,17.72
2022-10-01T17:52:48.292Z,18.17
2022-10-01T17:58:23.333Z,16.28
2022-10-01T18:03:26.475Z,15.20
2022-10-01T18:08:51.208Z,14.51
2022-10-01T18:13:53.849Z,14.03
2022-10-01T18:24:25.905Z,17.69
2022-10-01T18:29:28.988Z,17.94
2022-10-01T18:35:00.160Z,16.19
2022-10-01T18:40:17.992Z,15.00
2022-10-01T18:45:48.667Z,14.31
2022-10-01T18:51:24.756Z,15.31
2022-10-01T18:56:34.030Z,18.27
2022-10-01T19:02:13.634Z,18.42
2022-10-01T19:08:06.859Z,16.24
2022-10-01T19:14:09.310Z,14.94
2022-10-01T19:19:58.296Z,14.11
2022-10-01T19:25:08.736Z,15.24
2022-10-01T19:30:19.941Z,17.79
2022-10-01T19:35:32.152Z,18.08
2022-10-01T19:40:51.575Z,16.13
2022-10-01T19:46:26.611Z,14.89
2022-10-01T19:51:35.471Z,14.08
2022-10-01T19:56:40.172Z,14.82
2022-10-01T20:02:33.881Z,17.57
2022-10-01T20:08:07.719Z,18.69
2022-10-01T20:13:53.277Z,16.96
2022-10-01T20:19:18.527Z,15.47
2022-10-01T20:24:41.049Z,14.60
2022-10-01T20:29:56.104Z,13.89
2022-10-01T20:35:31.393Z,14.72
2022-10-01T20:40:49.958Z,17.35
2022-10-01T20:45:55.362Z,18.56
2022-10-01T20:51:10.281Z,18.52
2022-10-01T20:56:28.537Z,16.54
2022-10-01T21:01:36.674Z,15.30
2022-10-01T21:07:00.248Z,15.72
2022-10-01T21:12:21.995Z,18.37
2022-10-01T21:18:21.278Z,19.61
2022-10-01T21:23:39.780Z,18.66
2022-10-01T21:28:57.957Z,16.64
2022-10-01T21:34:19.896Z,15.38
2022-10-01T21:39:55.557Z,14.44
2022-10-01T21:45:46.924Z,15.35
2022-10-01T21:50:53.281Z,17.97
2022-10-01T21:56:26.797Z,17.88
2022-10-01T22:01:54.940Z,15.63
2022-10-01T22:07:37.215Z,14.31
2022-10-01T22:12:46.474Z,15.11
2022-10-01T22:17:53.843Z,17.55
2022-10-01T22:23:09.045Z,18.69
2022-10-01T22:28:25.458Z,18.23
2022-10-01T22:33:38.312Z,15.98
2022-10-01T22:38:54.524Z,14.56
2022-10-01T22:43:57.737Z,15.02
2022-10-01T22:50:14.348Z,17.26
2022-10-01T22:55:57.922Z,18.55
2022-10-01T23:01:22.512Z,17.97
2022-10-01T23:06:56.161Z,15.83
2022-10-01T23:12:27.341Z,14.43
2022-10-01T23:17:51.926Z,13.49
2022-10-01T23:23:33.716Z,14.59
2022-10-01T23:28:44.893Z,17.47
2022-10-01T23:34:01.352Z,18.62
2022-10-01T23:39:19.620Z,18.15
2022-10-01T23:45:01.229Z,15.83
2022-10-01T23:50:10.915Z,14.26
2022-10-01T23:55:51.602Z,14.66
